Airport View

Enter AWOS ICAO identifier for current METAR.

ex. KFNL

KGUC 041356Z AUTO 00000KT 10SM CLR 12/07 A3042 RMK AO2 SLP221 T01220067

4 Jul 2020 14:15

Frequency: 135.075

Phone: 970-641-3240

Other Area AWOS: KMYP - K7BM - KASE - KANK

TAF KGUC 041135Z 0412/0512 VRB04KT P6SM FEW080 SCT180 FM041800 27006KT P6SM VCTS SCT080CB BKN100 FM042100 34009KT P6SM VCTS SCT080CB BKN100 FM050300 VRB04KT P6SM SCT080 SCT100 FM050600 VRB04KT P6SM FEW080